sensor_id;sensor_type;location;lat;lon;timestamp;P1;durP1;ratioP1;P2;durP2;ratioP2
17059;SDS011;8646;49.716;9.266;2022-07-23T00:01:28;11.83;;;8.10;;
17059;SDS011;8646;49.716;9.266;2022-07-23T00:04:31;11.83;;;8.10;;
17059;SDS011;8646;49.716;9.266;2022-07-23T00:07:34;14.40;;;8.13;;
17059;SDS011;8646;49.716;9.266;2022-07-23T00:10:37;13.27;;;8.17;;
17059;SDS011;8646;49.716;9.266;2022-07-23T00:13:42;11.07;;;7.70;;
17059;SDS011;8646;49.716;9.266;2022-07-23T00:16:44;12.60;;;8.40;;
17059;SDS011;8646;49.716;9.266;2022-07-23T00:19:48;9.80;;;8.03;;
17059;SDS011;8646;49.716;9.266;2022-07-23T00:22:51;9.37;;;7.83;;
17059;SDS011;8646;49.716;9.266;2022-07-23T00:25:55;13.80;;;8.20;;
17059;SDS011;8646;49.716;9.266;2022-07-23T00:28:59;12.93;;;8.30;;
17059;SDS011;8646;49.716;9.266;2022-07-23T00:32:03;12.00;;;8.50;;
17059;SDS011;8646;49.716;9.266;2022-07-23T00:35:07;13.33;;;8.40;;
17059;SDS011;8646;49.716;9.266;2022-07-23T00:38:10;10.60;;;8.07;;
17059;SDS011;8646;49.716;9.266;2022-07-23T00:41:13;12.33;;;8.47;;
17059;SDS011;8646;49.716;9.266;2022-07-23T00:44:21;11.90;;;8.67;;
17059;SDS011;8646;49.716;9.266;2022-07-23T00:47:25;15.73;;;8.67;;
17059;SDS011;8646;49.716;9.266;2022-07-23T00:50:28;12.10;;;8.40;;
17059;SDS011;8646;49.716;9.266;2022-07-23T00:53:31;12.70;;;8.10;;
17059;SDS011;8646;49.716;9.266;2022-07-23T00:56:34;11.80;;;8.77;;
17059;SDS011;8646;49.716;9.266;2022-07-23T00:59:39;15.33;;;8.33;;
17059;SDS011;8646;49.716;9.266;2022-07-23T01:02:42;11.23;;;8.33;;
17059;SDS011;8646;49.716;9.266;2022-07-23T01:05:47;13.03;;;8.63;;
17059;SDS011;8646;49.716;9.266;2022-07-23T01:08:51;15.40;;;8.80;;
17059;SDS011;8646;49.716;9.266;2022-07-23T01:11:55;13.67;;;8.50;;
17059;SDS011;8646;49.716;9.266;2022-07-23T01:15:00;11.97;;;8.13;;
17059;SDS011;8646;49.716;9.266;2022-07-23T01:18:04;12.83;;;8.83;;
17059;SDS011;8646;49.716;9.266;2022-07-23T01:21:08;11.97;;;8.27;;
17059;SDS011;8646;49.716;9.266;2022-07-23T01:24:15;11.60;;;8.43;;
17059;SDS011;8646;49.716;9.266;2022-07-23T01:27:20;14.90;;;8.63;;
17059;SDS011;8646;49.716;9.266;2022-07-23T01:30:23;13.60;;;8.77;;
17059;SDS011;8646;49.716;9.266;2022-07-23T01:33:26;12.00;;;8.50;;
17059;SDS011;8646;49.716;9.266;2022-07-23T01:36:29;13.23;;;8.53;;
17059;SDS011;8646;49.716;9.266;2022-07-23T01:39:33;14.10;;;8.63;;
17059;SDS011;8646;49.716;9.266;2022-07-23T01:42:36;12.07;;;8.93;;
17059;SDS011;8646;49.716;9.266;2022-07-23T01:45:39;13.33;;;8.90;;
17059;SDS011;8646;49.716;9.266;2022-07-23T01:48:42;13.40;;;9.23;;
17059;SDS011;8646;49.716;9.266;2022-07-23T01:51:45;14.23;;;8.97;;
17059;SDS011;8646;49.716;9.266;2022-07-23T01:55:03;14.47;;;9.27;;
17059;SDS011;8646;49.716;9.266;2022-07-23T01:58:07;11.80;;;8.80;;
17059;SDS011;8646;49.716;9.266;2022-07-23T02:01:10;15.40;;;9.27;;
17059;SDS011;8646;49.716;9.266;2022-07-23T02:04:13;12.97;;;8.60;;
17059;SDS011;8646;49.716;9.266;2022-07-23T02:07:16;13.43;;;9.13;;
17059;SDS011;8646;49.716;9.266;2022-07-23T02:10:20;16.43;;;8.90;;
17059;SDS011;8646;49.716;9.266;2022-07-23T02:13:23;14.50;;;9.30;;
17059;SDS011;8646;49.716;9.266;2022-07-23T02:16:31;12.60;;;8.93;;
17059;SDS011;8646;49.716;9.266;2022-07-23T02:19:34;11.33;;;8.20;;
17059;SDS011;8646;49.716;9.266;2022-07-23T02:22:37;17.23;;;8.93;;
17059;SDS011;8646;49.716;9.266;2022-07-23T02:25:42;16.07;;;9.17;;
17059;SDS011;8646;49.716;9.266;2022-07-23T02:28:45;13.80;;;9.03;;
17059;SDS011;8646;49.716;9.266;2022-07-23T02:31:48;14.60;;;9.83;;
17059;SDS011;8646;49.716;9.266;2022-07-23T02:34:51;19.10;;;9.67;;
17059;SDS011;8646;49.716;9.266;2022-07-23T02:37:54;14.33;;;9.67;;
17059;SDS011;8646;49.716;9.266;2022-07-23T02:40:58;16.40;;;10.07;;
17059;SDS011;8646;49.716;9.266;2022-07-23T02:44:02;13.40;;;9.87;;
17059;SDS011;8646;49.716;9.266;2022-07-23T02:47:05;19.50;;;10.10;;
17059;SDS011;8646;49.716;9.266;2022-07-23T02:50:08;14.17;;;9.73;;
17059;SDS011;8646;49.716;9.266;2022-07-23T02:53:12;15.03;;;9.27;;
17059;SDS011;8646;49.716;9.266;2022-07-23T02:56:16;17.07;;;10.57;;
17059;SDS011;8646;49.716;9.266;2022-07-23T02:59:19;14.07;;;9.43;;
17059;SDS011;8646;49.716;9.266;2022-07-23T03:02:22;13.17;;;9.43;;
17059;SDS011;8646;49.716;9.266;2022-07-23T03:05:25;14.90;;;10.07;;
17059;SDS011;8646;49.716;9.266;2022-07-23T03:08:28;13.67;;;9.37;;
17059;SDS011;8646;49.716;9.266;2022-07-23T03:11:33;13.67;;;9.00;;
17059;SDS011;8646;49.716;9.266;2022-07-23T03:14:36;10.80;;;7.70;;
17059;SDS011;8646;49.716;9.266;2022-07-23T03:17:40;15.70;;;8.53;;
17059;SDS011;8646;49.716;9.266;2022-07-23T03:20:43;12.40;;;8.00;;
17059;SDS011;8646;49.716;9.266;2022-07-23T03:23:46;14.60;;;8.00;;
17059;SDS011;8646;49.716;9.266;2022-07-23T03:26:50;11.77;;;7.80;;
17059;SDS011;8646;49.716;9.266;2022-07-23T03:29:53;10.63;;;8.13;;
17059;SDS011;8646;49.716;9.266;2022-07-23T03:32:57;11.13;;;7.60;;
17059;SDS011;8646;49.716;9.266;2022-07-23T03:36:00;11.93;;;7.73;;
17059;SDS011;8646;49.716;9.266;2022-07-23T03:39:05;10.97;;;7.40;;
17059;SDS011;8646;49.716;9.266;2022-07-23T03:42:14;11.97;;;8.67;;
17059;SDS011;8646;49.716;9.266;2022-07-23T03:45:17;11.87;;;7.53;;
17059;SDS011;8646;49.716;9.266;2022-07-23T03:48:20;11.60;;;6.80;;
17059;SDS011;8646;49.716;9.266;2022-07-23T03:51:23;11.80;;;6.87;;
17059;SDS011;8646;49.716;9.266;2022-07-23T03:54:26;10.20;;;6.90;;
17059;SDS011;8646;49.716;9.266;2022-07-23T03:57:30;10.37;;;6.53;;
17059;SDS011;8646;49.716;9.266;2022-07-23T04:00:33;18.00;;;8.10;;
17059;SDS011;8646;49.716;9.266;2022-07-23T04:03:36;12.27;;;6.93;;
17059;SDS011;8646;49.716;9.266;2022-07-23T04:06:39;11.47;;;6.17;;
17059;SDS011;8646;49.716;9.266;2022-07-23T04:09:42;10.07;;;6.30;;
17059;SDS011;8646;49.716;9.266;2022-07-23T04:12:48;12.33;;;6.50;;
17059;SDS011;8646;49.716;9.266;2022-07-23T04:15:51;9.83;;;6.90;;
17059;SDS011;8646;49.716;9.266;2022-07-23T04:18:54;8.63;;;5.80;;
17059;SDS011;8646;49.716;9.266;2022-07-23T04:21:56;7.23;;;5.50;;
17059;SDS011;8646;49.716;9.266;2022-07-23T04:24:59;7.57;;;5.27;;
17059;SDS011;8646;49.716;9.266;2022-07-23T04:28:04;8.10;;;2.77;;
17059;SDS011;8646;49.716;9.266;2022-07-23T04:31:07;10.23;;;5.57;;
17059;SDS011;8646;49.716;9.266;2022-07-23T04:34:09;9.60;;;5.60;;
17059;SDS011;8646;49.716;9.266;2022-07-23T04:37:12;10.57;;;6.17;;
17059;SDS011;8646;49.716;9.266;2022-07-23T04:40:15;7.60;;;5.30;;
17059;SDS011;8646;49.716;9.266;2022-07-23T04:43:20;8.90;;;5.70;;
17059;SDS011;8646;49.716;9.266;2022-07-23T04:46:23;8.50;;;5.60;;
17059;SDS011;8646;49.716;9.266;2022-07-23T04:49:26;9.20;;;5.23;;
17059;SDS011;8646;49.716;9.266;2022-07-23T04:52:30;9.40;;;5.77;;
17059;SDS011;8646;49.716;9.266;2022-07-23T04:55:32;9.23;;;5.20;;
17059;SDS011;8646;49.716;9.266;2022-07-23T04:58:46;11.00;;;5.97;;
17059;SDS011;8646;49.716;9.266;2022-07-23T05:01:49;9.07;;;5.53;;
17059;SDS011;8646;49.716;9.266;2022-07-23T05:04:55;8.47;;;5.57;;
17059;SDS011;8646;49.716;9.266;2022-07-23T05:07:58;10.23;;;5.87;;
17059;SDS011;8646;49.716;9.266;2022-07-23T05:11:01;11.23;;;5.80;;
17059;SDS011;8646;49.716;9.266;2022-07-23T05:14:05;7.30;;;5.63;;
17059;SDS011;8646;49.716;9.266;2022-07-23T05:17:08;15.10;;;5.57;;
17059;SDS011;8646;49.716;9.266;2022-07-23T05:20:11;10.07;;;5.67;;
17059;SDS011;8646;49.716;9.266;2022-07-23T05:23:14;7.90;;;5.70;;
17059;SDS011;8646;49.716;9.266;2022-07-23T05:26:17;10.73;;;5.50;;
17059;SDS011;8646;49.716;9.266;2022-07-23T05:29:23;8.33;;;5.43;;
17059;SDS011;8646;49.716;9.266;2022-07-23T05:32:26;8.77;;;5.73;;
17059;SDS011;8646;49.716;9.266;2022-07-23T05:35:28;8.57;;;4.60;;
17059;SDS011;8646;49.716;9.266;2022-07-23T05:38:31;9.87;;;5.40;;
17059;SDS011;8646;49.716;9.266;2022-07-23T05:41:35;9.03;;;5.27;;
17059;SDS011;8646;49.716;9.266;2022-07-23T05:44:39;8.03;;;5.40;;
17059;SDS011;8646;49.716;9.266;2022-07-23T05:47:42;7.50;;;4.07;;
17059;SDS011;8646;49.716;9.266;2022-07-23T05:50:46;9.50;;;5.77;;
17059;SDS011;8646;49.716;9.266;2022-07-23T05:53:50;9.63;;;6.07;;
17059;SDS011;8646;49.716;9.266;2022-07-23T05:56:53;10.57;;;5.83;;
17059;SDS011;8646;49.716;9.266;2022-07-23T05:59:57;11.57;;;5.70;;
17059;SDS011;8646;49.716;9.266;2022-07-23T06:03:00;9.87;;;5.60;;
17059;SDS011;8646;49.716;9.266;2022-07-23T06:06:03;10.03;;;6.20;;
17059;SDS011;8646;49.716;9.266;2022-07-23T06:09:07;14.27;;;6.20;;
17059;SDS011;8646;49.716;9.266;2022-07-23T06:12:11;9.13;;;5.97;;
17059;SDS011;8646;49.716;9.266;2022-07-23T06:15:15;10.63;;;6.00;;
17059;SDS011;8646;49.716;9.266;2022-07-23T06:18:18;11.83;;;6.87;;
17059;SDS011;8646;49.716;9.266;2022-07-23T06:21:21;11.37;;;6.23;;
17059;SDS011;8646;49.716;9.266;2022-07-23T06:24:44;10.67;;;7.10;;
17059;SDS011;8646;49.716;9.266;2022-07-23T06:27:49;13.00;;;6.50;;
17059;SDS011;8646;49.716;9.266;2022-07-23T06:30:53;10.83;;;6.53;;
17059;SDS011;8646;49.716;9.266;2022-07-23T06:33:58;9.50;;;5.67;;
17059;SDS011;8646;49.716;9.266;2022-07-23T06:37:01;12.90;;;6.73;;
17059;SDS011;8646;49.716;9.266;2022-07-23T06:40:05;11.73;;;6.67;;
17059;SDS011;8646;49.716;9.266;2022-07-23T06:43:08;13.47;;;7.37;;
17059;SDS011;8646;49.716;9.266;2022-07-23T06:46:12;12.33;;;7.30;;
17059;SDS011;8646;49.716;9.266;2022-07-23T06:49:15;13.17;;;6.53;;
17059;SDS011;8646;49.716;9.266;2022-07-23T06:52:18;10.33;;;6.63;;
17059;SDS011;8646;49.716;9.266;2022-07-23T06:55:21;10.83;;;7.03;;
17059;SDS011;8646;49.716;9.266;2022-07-23T06:58:24;12.73;;;6.93;;
17059;SDS011;8646;49.716;9.266;2022-07-23T07:01:28;10.93;;;6.50;;
17059;SDS011;8646;49.716;9.266;2022-07-23T07:04:32;13.03;;;7.30;;
17059;SDS011;8646;49.716;9.266;2022-07-23T07:07:34;16.07;;;6.70;;
17059;SDS011;8646;49.716;9.266;2022-07-23T07:10:37;13.27;;;6.57;;
17059;SDS011;8646;49.716;9.266;2022-07-23T07:13:40;9.67;;;6.30;;
17059;SDS011;8646;49.716;9.266;2022-07-23T07:16:44;10.90;;;6.53;;
17059;SDS011;8646;49.716;9.266;2022-07-23T07:19:47;11.47;;;6.30;;
17059;SDS011;8646;49.716;9.266;2022-07-23T07:22:50;10.80;;;6.60;;
17059;SDS011;8646;49.716;9.266;2022-07-23T07:25:53;12.20;;;6.60;;
17059;SDS011;8646;49.716;9.266;2022-07-23T07:28:55;9.80;;;6.90;;
17059;SDS011;8646;49.716;9.266;2022-07-23T07:32:00;11.37;;;6.40;;
17059;SDS011;8646;49.716;9.266;2022-07-23T07:35:03;11.20;;;6.70;;
17059;SDS011;8646;49.716;9.266;2022-07-23T07:38:06;11.47;;;6.70;;
17059;SDS011;8646;49.716;9.266;2022-07-23T07:41:09;9.67;;;6.23;;
17059;SDS011;8646;49.716;9.266;2022-07-23T07:44:13;9.30;;;6.53;;
17059;SDS011;8646;49.716;9.266;2022-07-23T07:47:18;9.63;;;6.33;;
17059;SDS011;8646;49.716;9.266;2022-07-23T07:50:21;10.93;;;6.70;;
17059;SDS011;8646;49.716;9.266;2022-07-23T07:53:26;13.30;;;6.03;;
17059;SDS011;8646;49.716;9.266;2022-07-23T07:56:29;9.43;;;6.53;;
17059;SDS011;8646;49.716;9.266;2022-07-23T07:59:33;10.47;;;7.20;;
17059;SDS011;8646;49.716;9.266;2022-07-23T08:02:44;11.73;;;6.57;;
17059;SDS011;8646;49.716;9.266;2022-07-23T08:05:49;9.97;;;6.60;;
17059;SDS011;8646;49.716;9.266;2022-07-23T08:08:52;10.67;;;6.30;;
17059;SDS011;8646;49.716;9.266;2022-07-23T08:11:55;10.70;;;6.67;;
17059;SDS011;8646;49.716;9.266;2022-07-23T08:14:58;12.03;;;6.50;;
17059;SDS011;8646;49.716;9.266;2022-07-23T08:18:05;11.70;;;6.93;;
17059;SDS011;8646;49.716;9.266;2022-07-23T08:21:08;10.27;;;6.90;;
17059;SDS011;8646;49.716;9.266;2022-07-23T08:24:11;8.30;;;6.40;;
17059;SDS011;8646;49.716;9.266;2022-07-23T08:27:13;13.07;;;6.33;;
17059;SDS011;8646;49.716;9.266;2022-07-23T08:30:17;13.40;;;6.20;;
17059;SDS011;8646;49.716;9.266;2022-07-23T08:33:22;9.63;;;6.77;;
17059;SDS011;8646;49.716;9.266;2022-07-23T08:36:34;10.67;;;5.93;;
17059;SDS011;8646;49.716;9.266;2022-07-23T08:39:38;9.40;;;6.43;;
17059;SDS011;8646;49.716;9.266;2022-07-23T08:42:44;11.23;;;6.57;;
17059;SDS011;8646;49.716;9.266;2022-07-23T08:45:50;8.07;;;6.13;;
17059;SDS011;8646;49.716;9.266;2022-07-23T08:48:55;10.13;;;6.50;;
17059;SDS011;8646;49.716;9.266;2022-07-23T08:51:59;8.67;;;6.20;;
17059;SDS011;8646;49.716;9.266;2022-07-23T08:55:03;9.37;;;6.30;;
17059;SDS011;8646;49.716;9.266;2022-07-23T08:58:06;10.10;;;6.67;;
17059;SDS011;8646;49.716;9.266;2022-07-23T09:01:09;11.50;;;6.57;;
17059;SDS011;8646;49.716;9.266;2022-07-23T09:04:13;10.40;;;6.93;;
17059;SDS011;8646;49.716;9.266;2022-07-23T09:07:16;9.20;;;6.13;;
17059;SDS011;8646;49.716;9.266;2022-07-23T09:10:19;13.27;;;6.73;;
17059;SDS011;8646;49.716;9.266;2022-07-23T09:13:32;10.17;;;6.53;;
17059;SDS011;8646;49.716;9.266;2022-07-23T09:16:36;13.80;;;6.97;;
17059;SDS011;8646;49.716;9.266;2022-07-23T09:19:41;10.10;;;6.53;;
17059;SDS011;8646;49.716;9.266;2022-07-23T09:22:46;10.57;;;6.83;;
17059;SDS011;8646;49.716;9.266;2022-07-23T09:25:50;11.23;;;6.50;;
17059;SDS011;8646;49.716;9.266;2022-07-23T09:28:54;9.13;;;6.60;;
17059;SDS011;8646;49.716;9.266;2022-07-23T09:32:02;10.07;;;5.93;;
17059;SDS011;8646;49.716;9.266;2022-07-23T09:35:10;9.60;;;6.40;;
17059;SDS011;8646;49.716;9.266;2022-07-23T09:38:13;13.70;;;6.83;;
17059;SDS011;8646;49.716;9.266;2022-07-23T09:41:16;8.20;;;6.60;;
17059;SDS011;8646;49.716;9.266;2022-07-23T09:44:20;12.90;;;6.40;;
17059;SDS011;8646;49.716;9.266;2022-07-23T09:47:29;8.67;;;5.70;;
17059;SDS011;8646;49.716;9.266;2022-07-23T09:50:34;9.57;;;6.30;;
17059;SDS011;8646;49.716;9.266;2022-07-23T09:53:37;9.30;;;5.90;;
17059;SDS011;8646;49.716;9.266;2022-07-23T09:56:40;10.90;;;7.10;;
17059;SDS011;8646;49.716;9.266;2022-07-23T09:59:44;9.03;;;6.10;;
17059;SDS011;8646;49.716;9.266;2022-07-23T10:02:48;7.40;;;5.50;;
17059;SDS011;8646;49.716;9.266;2022-07-23T10:05:53;8.77;;;5.70;;
17059;SDS011;8646;49.716;9.266;2022-07-23T10:08:58;9.30;;;6.00;;
17059;SDS011;8646;49.716;9.266;2022-07-23T10:12:02;10.67;;;6.00;;
17059;SDS011;8646;49.716;9.266;2022-07-23T10:15:14;8.13;;;5.60;;
17059;SDS011;8646;49.716;9.266;2022-07-23T10:18:17;8.10;;;5.80;;
17059;SDS011;8646;49.716;9.266;2022-07-23T10:21:23;9.00;;;5.87;;
17059;SDS011;8646;49.716;9.266;2022-07-23T10:24:53;7.93;;;5.97;;
17059;SDS011;8646;49.716;9.266;2022-07-23T10:28:07;9.03;;;5.83;;
17059;SDS011;8646;49.716;9.266;2022-07-23T10:31:28;8.17;;;5.80;;
17059;SDS011;8646;49.716;9.266;2022-07-23T10:34:58;9.03;;;5.60;;
17059;SDS011;8646;49.716;9.266;2022-07-23T10:38:24;8.93;;;6.43;;
17059;SDS011;8646;49.716;9.266;2022-07-23T10:41:30;9.80;;;6.23;;
17059;SDS011;8646;49.716;9.266;2022-07-23T10:44:38;8.40;;;6.33;;
17059;SDS011;8646;49.716;9.266;2022-07-23T10:47:42;8.50;;;6.20;;
17059;SDS011;8646;49.716;9.266;2022-07-23T10:51:06;8.50;;;5.67;;
17059;SDS011;8646;49.716;9.266;2022-07-23T10:54:21;9.43;;;6.20;;
17059;SDS011;8646;49.716;9.266;2022-07-23T10:57:24;9.30;;;6.20;;
17059;SDS011;8646;49.716;9.266;2022-07-23T11:00:28;11.03;;;6.27;;
17059;SDS011;8646;49.716;9.266;2022-07-23T11:03:33;7.27;;;5.13;;
17059;SDS011;8646;49.716;9.266;2022-07-23T11:10:11;9.93;;;6.37;;
17059;SDS011;8646;49.716;9.266;2022-07-23T11:13:38;9.23;;;6.10;;
17059;SDS011;8646;49.716;9.266;2022-07-23T11:16:47;10.33;;;5.97;;
17059;SDS011;8646;49.716;9.266;2022-07-23T11:23:40;8.27;;;5.57;;
17059;SDS011;8646;49.716;9.266;2022-07-23T11:27:03;14.77;;;6.20;;
17059;SDS011;8646;49.716;9.266;2022-07-23T11:30:06;8.40;;;6.20;;
17059;SDS011;8646;49.716;9.266;2022-07-23T11:33:17;9.23;;;6.03;;
17059;SDS011;8646;49.716;9.266;2022-07-23T11:36:22;8.70;;;6.60;;
17059;SDS011;8646;49.716;9.266;2022-07-23T11:39:27;7.90;;;6.10;;
17059;SDS011;8646;49.716;9.266;2022-07-23T11:42:32;6.80;;;4.67;;
17059;SDS011;8646;49.716;9.266;2022-07-23T11:45:36;9.27;;;5.67;;
17059;SDS011;8646;49.716;9.266;2022-07-23T11:48:41;10.77;;;6.50;;
17059;SDS011;8646;49.716;9.266;2022-07-23T11:51:44;9.73;;;6.07;;
17059;SDS011;8646;49.716;9.266;2022-07-23T11:54:48;8.57;;;6.35;;
17059;SDS011;8646;49.716;9.266;2022-07-23T11:57:53;9.40;;;6.27;;
17059;SDS011;8646;49.716;9.266;2022-07-23T12:00:59;10.57;;;6.07;;
17059;SDS011;8646;49.716;9.266;2022-07-23T12:04:03;11.30;;;6.13;;
17059;SDS011;8646;49.716;9.266;2022-07-23T12:10:29;12.25;;;5.95;;
17059;SDS011;8646;49.716;9.266;2022-07-23T12:13:37;7.65;;;4.80;;
17059;SDS011;8646;49.716;9.266;2022-07-23T12:16:40;9.10;;;5.70;;
17059;SDS011;8646;49.716;9.266;2022-07-23T12:19:43;6.18;;;4.80;;
17059;SDS011;8646;49.716;9.266;2022-07-23T12:22:47;8.05;;;6.10;;
17059;SDS011;8646;49.716;9.266;2022-07-23T12:25:52;10.23;;;5.63;;
17059;SDS011;8646;49.716;9.266;2022-07-23T12:28:57;11.63;;;5.90;;
17059;SDS011;8646;49.716;9.266;2022-07-23T12:32:01;13.52;;;6.00;;
17059;SDS011;8646;49.716;9.266;2022-07-23T12:35:05;11.27;;;6.40;;
17059;SDS011;8646;49.716;9.266;2022-07-23T12:38:11;10.38;;;6.40;;
17059;SDS011;8646;49.716;9.266;2022-07-23T12:41:15;8.85;;;5.93;;
17059;SDS011;8646;49.716;9.266;2022-07-23T12:44:20;7.88;;;5.40;;
17059;SDS011;8646;49.716;9.266;2022-07-23T12:47:22;10.82;;;5.50;;
17059;SDS011;8646;49.716;9.266;2022-07-23T12:50:32;6.82;;;5.22;;
17059;SDS011;8646;49.716;9.266;2022-07-23T12:53:37;7.78;;;5.00;;
17059;SDS011;8646;49.716;9.266;2022-07-23T12:56:44;7.70;;;5.28;;
17059;SDS011;8646;49.716;9.266;2022-07-23T12:59:50;6.90;;;5.32;;
17059;SDS011;8646;49.716;9.266;2022-07-23T13:02:53;12.48;;;5.00;;
17059;SDS011;8646;49.716;9.266;2022-07-23T13:05:56;7.20;;;5.68;;
17059;SDS011;8646;49.716;9.266;2022-07-23T13:09:00;6.68;;;5.18;;
17059;SDS011;8646;49.716;9.266;2022-07-23T13:12:03;7.95;;;5.25;;
17059;SDS011;8646;49.716;9.266;2022-07-23T13:15:08;8.07;;;5.20;;
17059;SDS011;8646;49.716;9.266;2022-07-23T13:18:12;8.23;;;5.57;;
17059;SDS011;8646;49.716;9.266;2022-07-23T13:21:15;5.97;;;4.72;;
17059;SDS011;8646;49.716;9.266;2022-07-23T13:24:37;5.75;;;4.78;;
17059;SDS011;8646;49.716;9.266;2022-07-23T13:27:40;7.25;;;5.20;;
17059;SDS011;8646;49.716;9.266;2022-07-23T13:30:45;7.40;;;5.25;;
17059;SDS011;8646;49.716;9.266;2022-07-23T13:33:51;6.63;;;5.00;;
17059;SDS011;8646;49.716;9.266;2022-07-23T13:36:54;6.85;;;4.35;;
17059;SDS011;8646;49.716;9.266;2022-07-23T13:39:57;7.43;;;4.78;;
17059;SDS011;8646;49.716;9.266;2022-07-23T13:43:00;9.18;;;5.15;;
17059;SDS011;8646;49.716;9.266;2022-07-23T13:46:09;9.77;;;5.50;;
17059;SDS011;8646;49.716;9.266;2022-07-23T13:49:12;7.38;;;4.93;;
17059;SDS011;8646;49.716;9.266;2022-07-23T13:52:16;8.48;;;5.20;;
17059;SDS011;8646;49.716;9.266;2022-07-23T13:55:20;6.83;;;5.00;;
17059;SDS011;8646;49.716;9.266;2022-07-23T13:58:23;8.32;;;5.50;;
17059;SDS011;8646;49.716;9.266;2022-07-23T14:01:27;8.07;;;5.00;;
17059;SDS011;8646;49.716;9.266;2022-07-23T14:04:46;6.45;;;5.03;;
17059;SDS011;8646;49.716;9.266;2022-07-23T14:07:49;7.88;;;5.15;;
17059;SDS011;8646;49.716;9.266;2022-07-23T14:10:55;8.50;;;4.88;;
17059;SDS011;8646;49.716;9.266;2022-07-23T14:13:59;5.82;;;4.43;;
17059;SDS011;8646;49.716;9.266;2022-07-23T14:17:04;8.27;;;5.40;;
17059;SDS011;8646;49.716;9.266;2022-07-23T14:20:12;6.25;;;4.70;;
17059;SDS011;8646;49.716;9.266;2022-07-23T14:23:15;11.82;;;5.35;;
17059;SDS011;8646;49.716;9.266;2022-07-23T14:26:18;8.65;;;4.43;;
17059;SDS011;8646;49.716;9.266;2022-07-23T14:29:21;9.13;;;5.68;;
17059;SDS011;8646;49.716;9.266;2022-07-23T14:32:26;10.13;;;5.00;;
17059;SDS011;8646;49.716;9.266;2022-07-23T14:35:29;6.18;;;4.80;;
17059;SDS011;8646;49.716;9.266;2022-07-23T14:38:32;7.10;;;5.10;;
17059;SDS011;8646;49.716;9.266;2022-07-23T14:41:35;6.75;;;5.10;;
17059;SDS011;8646;49.716;9.266;2022-07-23T14:44:38;8.02;;;5.20;;
17059;SDS011;8646;49.716;9.266;2022-07-23T14:47:42;9.20;;;5.03;;
17059;SDS011;8646;49.716;9.266;2022-07-23T14:50:47;7.35;;;4.55;;
17059;SDS011;8646;49.716;9.266;2022-07-23T14:53:50;5.93;;;5.05;;
17059;SDS011;8646;49.716;9.266;2022-07-23T14:56:53;8.43;;;5.10;;
17059;SDS011;8646;49.716;9.266;2022-07-23T14:59:56;7.70;;;5.20;;
17059;SDS011;8646;49.716;9.266;2022-07-23T15:03:01;7.65;;;4.63;;
17059;SDS011;8646;49.716;9.266;2022-07-23T15:06:04;7.43;;;5.15;;
17059;SDS011;8646;49.716;9.266;2022-07-23T15:09:09;10.45;;;5.00;;
17059;SDS011;8646;49.716;9.266;2022-07-23T15:12:12;6.22;;;4.85;;
17059;SDS011;8646;49.716;9.266;2022-07-23T15:15:15;7.57;;;5.03;;
17059;SDS011;8646;49.716;9.266;2022-07-23T15:18:20;7.40;;;4.93;;
17059;SDS011;8646;49.716;9.266;2022-07-23T15:21:23;7.35;;;4.93;;
17059;SDS011;8646;49.716;9.266;2022-07-23T15:24:27;7.13;;;5.03;;
17059;SDS011;8646;49.716;9.266;2022-07-23T15:27:29;9.05;;;5.03;;
17059;SDS011;8646;49.716;9.266;2022-07-23T15:30:33;7.28;;;5.00;;
17059;SDS011;8646;49.716;9.266;2022-07-23T15:33:39;6.43;;;4.72;;
17059;SDS011;8646;49.716;9.266;2022-07-23T15:36:42;7.95;;;4.45;;
17059;SDS011;8646;49.716;9.266;2022-07-23T15:39:45;7.28;;;5.00;;
17059;SDS011;8646;49.716;9.266;2022-07-23T15:42:48;9.05;;;5.07;;
17059;SDS011;8646;49.716;9.266;2022-07-23T15:45:51;10.50;;;5.05;;
17059;SDS011;8646;49.716;9.266;2022-07-23T15:48:57;7.57;;;5.35;;
17059;SDS011;8646;49.716;9.266;2022-07-23T15:52:01;8.75;;;5.22;;
17059;SDS011;8646;49.716;9.266;2022-07-23T15:55:04;7.57;;;5.43;;
17059;SDS011;8646;49.716;9.266;2022-07-23T15:58:17;8.13;;;5.22;;
17059;SDS011;8646;49.716;9.266;2022-07-23T16:01:25;7.90;;;5.40;;
17059;SDS011;8646;49.716;9.266;2022-07-23T16:04:32;10.50;;;5.05;;
17059;SDS011;8646;49.716;9.266;2022-07-23T16:07:35;8.07;;;5.70;;
17059;SDS011;8646;49.716;9.266;2022-07-23T16:10:39;6.00;;;5.18;;
17059;SDS011;8646;49.716;9.266;2022-07-23T16:13:43;7.70;;;5.18;;
17059;SDS011;8646;49.716;9.266;2022-07-23T16:16:46;7.47;;;5.00;;
17059;SDS011;8646;49.716;9.266;2022-07-23T16:19:51;6.93;;;5.07;;
17059;SDS011;8646;49.716;9.266;2022-07-23T16:22:54;7.32;;;5.40;;
17059;SDS011;8646;49.716;9.266;2022-07-23T16:25:57;7.38;;;5.40;;
17059;SDS011;8646;49.716;9.266;2022-07-23T16:29:10;11.18;;;5.13;;
17059;SDS011;8646;49.716;9.266;2022-07-23T16:32:32;7.47;;;4.82;;
17059;SDS011;8646;49.716;9.266;2022-07-23T16:35:43;7.35;;;4.82;;
17059;SDS011;8646;49.716;9.266;2022-07-23T16:38:47;8.20;;;5.53;;
17059;SDS011;8646;49.716;9.266;2022-07-23T16:41:50;5.60;;;4.65;;
17059;SDS011;8646;49.716;9.266;2022-07-23T16:44:53;7.63;;;5.50;;
17059;SDS011;8646;49.716;9.266;2022-07-23T16:47:56;8.82;;;5.43;;
17059;SDS011;8646;49.716;9.266;2022-07-23T16:51:01;8.25;;;5.70;;
17059;SDS011;8646;49.716;9.266;2022-07-23T16:54:07;8.13;;;5.07;;
17059;SDS011;8646;49.716;9.266;2022-07-23T16:57:10;7.72;;;5.38;;
17059;SDS011;8646;49.716;9.266;2022-07-23T17:00:14;9.98;;;5.13;;
17059;SDS011;8646;49.716;9.266;2022-07-23T17:03:17;7.78;;;5.50;;
17059;SDS011;8646;49.716;9.266;2022-07-23T17:06:22;7.57;;;5.47;;
17059;SDS011;8646;49.716;9.266;2022-07-23T17:09:25;7.60;;;5.90;;
17059;SDS011;8646;49.716;9.266;2022-07-23T17:12:28;8.05;;;6.15;;
17059;SDS011;8646;49.716;9.266;2022-07-23T17:15:31;9.65;;;6.68;;
17059;SDS011;8646;49.716;9.266;2022-07-23T17:18:36;8.82;;;6.22;;
17059;SDS011;8646;49.716;9.266;2022-07-23T17:21:40;8.57;;;6.10;;
17059;SDS011;8646;49.716;9.266;2022-07-23T17:24:43;10.65;;;6.60;;
17059;SDS011;8646;49.716;9.266;2022-07-23T17:27:46;11.68;;;6.15;;
17059;SDS011;8646;49.716;9.266;2022-07-23T17:30:50;10.60;;;5.43;;
17059;SDS011;8646;49.716;9.266;2022-07-23T17:33:53;10.45;;;5.30;;
17059;SDS011;8646;49.716;9.266;2022-07-23T17:36:57;9.30;;;5.50;;
17059;SDS011;8646;49.716;9.266;2022-07-23T17:40:00;10.00;;;5.68;;
17059;SDS011;8646;49.716;9.266;2022-07-23T17:43:04;8.13;;;5.68;;
17059;SDS011;8646;49.716;9.266;2022-07-23T17:46:07;8.23;;;5.43;;
17059;SDS011;8646;49.716;9.266;2022-07-23T17:49:10;7.60;;;5.32;;
17059;SDS011;8646;49.716;9.266;2022-07-23T17:52:14;8.97;;;5.93;;
17059;SDS011;8646;49.716;9.266;2022-07-23T17:55:17;7.00;;;5.70;;
17059;SDS011;8646;49.716;9.266;2022-07-23T17:58:23;9.80;;;5.63;;
17059;SDS011;8646;49.716;9.266;2022-07-23T18:01:26;13.23;;;6.10;;
17059;SDS011;8646;49.716;9.266;2022-07-23T18:04:30;7.23;;;5.47;;
17059;SDS011;8646;49.716;9.266;2022-07-23T18:07:34;8.77;;;5.53;;
17059;SDS011;8646;49.716;9.266;2022-07-23T18:10:37;8.70;;;5.83;;
17059;SDS011;8646;49.716;9.266;2022-07-23T18:13:40;9.83;;;5.50;;
17059;SDS011;8646;49.716;9.266;2022-07-23T18:16:43;7.60;;;5.57;;
17059;SDS011;8646;49.716;9.266;2022-07-23T18:19:46;8.13;;;5.60;;
17059;SDS011;8646;49.716;9.266;2022-07-23T18:22:51;7.50;;;5.43;;
17059;SDS011;8646;49.716;9.266;2022-07-23T18:25:54;11.87;;;6.03;;
17059;SDS011;8646;49.716;9.266;2022-07-23T18:28:58;7.10;;;5.90;;
17059;SDS011;8646;49.716;9.266;2022-07-23T18:32:01;11.80;;;6.10;;
17059;SDS011;8646;49.716;9.266;2022-07-23T18:35:18;9.97;;;5.60;;
17059;SDS011;8646;49.716;9.266;2022-07-23T18:38:26;7.33;;;5.40;;
17059;SDS011;8646;49.716;9.266;2022-07-23T18:41:33;10.70;;;5.70;;
17059;SDS011;8646;49.716;9.266;2022-07-23T18:44:37;10.33;;;5.30;;
17059;SDS011;8646;49.716;9.266;2022-07-23T18:47:40;10.20;;;5.80;;
17059;SDS011;8646;49.716;9.266;2022-07-23T18:50:45;8.90;;;5.70;;
17059;SDS011;8646;49.716;9.266;2022-07-23T18:53:49;9.30;;;6.17;;